Mount Vernon, KY

7:46 AM EST on January 18, 2017 (GMT -0500)
Southern McKee | | Change Station

Elev 1138 ft 37.36 °N, 83.94 °W | Updated 153 days ago

Overcast
Overcast
79.1 °F
Feels Like 83 °F
N
-
Wind Variable Wind from North
Gusts 0.0 mph

Today
High -- | Low -- °F
--% Chance of Precip.
Yesterday
High -- | Low -- °F
Precip. -- in
Pressure 30.16 in
Visibility 10.0 miles
Clouds Scattered Clouds 800 ft
Overcast 1300 ft
Heat Index 83 °F
Dew Point 75 °F
Humidity 86%
Rainfall 0.06 in
Snow Depth Not available.
7:49 AM 5:46 PM
Waning Gibbous, 63% visible
METAR KLOZ 181153Z AUTO 31007KT 10SM SCT008 OVC013 06/03 A3016 RMK AO2 SLP212 70023 T00560033 10106 20056 53017
Pressure 30.16 in
Visibility 10.0 miles
Clouds Scattered Clouds 800 ft
Overcast 1300 ft
Heat Index 83 °F
Dew Point 75 °F
Humidity 86%
Rainfall 0.06 in
Snow Depth Not available.
7:49 AM 5:46 PM
Waning Gibbous, 63% visible
METAR KLOZ 181153Z AUTO 31007KT 10SM SCT008 OVC013 06/03 A3016 RMK AO2 SLP212 70023 T00560033 10106 20056 53017

Get Your Daily Forecast Email!

Thanks for signing up!

Be on the lookout for a verification email in your inbox.

You'll start receiving the daily forecast at 8 AM.

×

10-Day Weather Forecast

Almanac

Astronomy

Jan. 18, 2017 Rise Set
Actual Time
Civil Twilight
Nautical Twilight
Astronomical Twilight
Moon
Length of Visible Light
Length of Day
Tomorrow will be .
, % of the Moon is Illuminated

Today's Extremes

State Highs State Lows

Community

WunderPhotos

Upload Photos

1,962,540 photos uploaded!

WunderBlog® & News

Nearby

Air Quality

  Air Quality AQ Index Pollutant
Not available.

Snow Depth

Station Depth Elevation

Earthquake Activity

City Distance Mag. Time & Date
Minimum magnitude displayed is 2.5.

Coastal Water Temperatures

Place Temperature

Stations

Nearby Weather Stations

Station Location Temp. Windchill Dew Point Humidity Wind Precip. Elev Updated Type
                   

Watches & Warnings

There are currently no watches in effect.